createdAt,value
2023-05-10T00:00:57.923Z,50.29
2023-05-10T00:01:59.858Z,50.69
2023-05-10T00:03:01.709Z,50.45
2023-05-10T00:04:03.556Z,50.86
2023-05-10T00:05:06.316Z,50.48
2023-05-10T00:06:08.116Z,50.88
2023-05-10T00:07:11.151Z,50.41
2023-05-10T00:08:13.014Z,50.54
2023-05-10T00:09:15.109Z,50.96
2023-05-10T00:10:17.234Z,50.96
2023-05-10T00:11:20.958Z,50.74
2023-05-10T00:12:24.004Z,51.29
2023-05-10T00:13:26.097Z,50.80
2023-05-10T00:14:28.070Z,50.87
2023-05-10T00:15:31.464Z,50.98
2023-05-10T00:16:33.371Z,51.17
2023-05-10T00:17:35.658Z,51.01
2023-05-10T00:18:37.508Z,51.33
2023-05-10T00:19:39.308Z,51.13
2023-05-10T00:20:41.020Z,51.00
2023-05-10T00:21:42.754Z,50.70
2023-05-10T00:22:44.501Z,51.03
2023-05-10T00:23:46.302Z,51.13
2023-05-10T00:24:48.058Z,51.01
2023-05-10T00:25:49.816Z,50.92
2023-05-10T00:26:51.574Z,51.22
2023-05-10T00:27:53.299Z,51.20
2023-05-10T00:28:55.126Z,50.94
2023-05-10T00:29:56.911Z,51.90
2023-05-10T00:30:58.711Z,51.78
2023-05-10T00:32:00.528Z,51.36
2023-05-10T00:33:02.442Z,51.25
2023-05-10T00:34:04.586Z,51.55
2023-05-10T00:35:06.906Z,51.12
2023-05-10T00:36:09.199Z,51.82
2023-05-10T00:37:10.957Z,51.52
2023-05-10T00:38:12.692Z,51.73
2023-05-10T00:39:14.437Z,51.91
2023-05-10T00:40:16.642Z,51.59
2023-05-10T00:41:18.776Z,51.76
2023-05-10T00:42:20.516Z,52.07
2023-05-10T00:43:22.248Z,52.29
2023-05-10T00:44:24.066Z,52.60
2023-05-10T00:45:26.048Z,52.14
2023-05-10T00:46:28.193Z,52.35
2023-05-10T00:47:30.717Z,52.44
2023-05-10T00:48:33.038Z,52.18
2023-05-10T00:49:37.217Z,52.11
2023-05-10T00:50:40.967Z,52.46
2023-05-10T00:51:43.880Z,52.94
2023-05-10T00:52:45.656Z,52.79
2023-05-10T00:53:47.748Z,52.27
2023-05-10T00:54:50.489Z,52.80
2023-05-10T00:55:52.505Z,52.65
2023-05-10T00:56:54.338Z,52.98
2023-05-10T00:57:56.689Z,53.18
2023-05-10T00:58:58.680Z,53.51
2023-05-10T01:00:00.854Z,52.80
2023-05-10T01:01:03.211Z,53.37
2023-05-10T01:02:05.400Z,53.71
2023-05-10T01:03:07.296Z,53.43
2023-05-10T01:04:11.926Z,53.50
2023-05-10T01:05:14.531Z,53.93
2023-05-10T01:06:16.333Z,53.55
2023-05-10T01:07:18.213Z,54.12
2023-05-10T01:08:21.253Z,53.17
2023-05-10T01:09:24.276Z,53.79
2023-05-10T01:10:26.374Z,53.84
2023-05-10T01:11:28.245Z,54.09
2023-05-10T01:12:30.270Z,53.75
2023-05-10T01:13:39.082Z,53.93
2023-05-10T01:14:41.370Z,54.86
2023-05-10T01:15:43.329Z,54.02
2023-05-10T01:16:48.334Z,54.30
2023-05-10T01:17:50.268Z,55.07
2023-05-10T01:18:53.178Z,54.18
2023-05-10T01:19:55.051Z,54.03
2023-05-10T01:21:23.507Z,54.89
2023-05-10T01:23:12.173Z,54.32
2023-05-10T01:24:13.799Z,55.15
2023-05-10T01:25:58.454Z,54.92
2023-05-10T01:27:59.522Z,55.08
2023-05-10T01:29:31.984Z,54.59
2023-05-10T01:31:03.785Z,54.63
2023-05-10T01:32:23.523Z,55.28
2023-05-10T01:33:37.517Z,55.02
2023-05-10T01:35:20.387Z,54.93
2023-05-10T01:36:54.216Z,54.88
2023-05-10T01:38:19.016Z,54.45
2023-05-10T01:39:47.970Z,55.09
2023-05-10T01:41:10.952Z,55.21
2023-05-10T01:42:22.754Z,55.75
2023-05-10T01:43:33.961Z,55.65
2023-05-10T01:44:50.068Z,55.65
2023-05-10T01:46:11.787Z,56.02
2023-05-10T01:47:40.436Z,55.71
2023-05-10T01:48:52.597Z,55.72
2023-05-10T01:50:01.057Z,56.07
2023-05-10T01:51:05.306Z,55.76
2023-05-10T01:52:16.798Z,55.43
2023-05-10T01:53:22.452Z,55.64
2023-05-10T01:54:25.697Z,55.94
2023-05-10T01:55:46.527Z,56.36
2023-05-10T01:57:01.143Z,55.74
2023-05-10T01:58:12.574Z,55.80
2023-05-10T01:59:20.174Z,56.17
2023-05-10T02:00:22.902Z,56.45
2023-05-10T02:01:27.800Z,56.58
2023-05-10T02:02:37.767Z,56.38
2023-05-10T02:04:10.034Z,56.24
2023-05-10T02:05:50.847Z,56.63
2023-05-10T02:06:56.203Z,56.42
2023-05-10T02:08:02.303Z,57.13
2023-05-10T02:09:16.815Z,56.97
2023-05-10T02:13:20.264Z,57.17
2023-05-10T02:14:25.297Z,57.11
2023-05-10T02:15:29.536Z,56.57
2023-05-10T02:16:32.879Z,56.99
2023-05-10T02:17:38.450Z,57.25
2023-05-10T02:18:42.720Z,57.38
2023-05-10T02:19:46.326Z,57.63
2023-05-10T02:20:48.814Z,56.80
2023-05-10T02:21:52.598Z,57.61
2023-05-10T02:22:58.480Z,57.28
2023-05-10T02:24:04.979Z,57.54
2023-05-10T02:25:10.742Z,57.21
2023-05-10T02:26:14.394Z,57.89
2023-05-10T02:27:20.804Z,57.57
2023-05-10T02:28:26.031Z,57.61
2023-05-10T02:29:30.040Z,58.25
2023-05-10T02:30:35.168Z,57.17
2023-05-10T02:31:39.755Z,57.53
2023-05-10T02:32:43.813Z,57.94
2023-05-10T02:33:48.316Z,58.45
2023-05-10T02:34:52.905Z,58.02
2023-05-10T02:35:56.721Z,58.46
2023-05-10T02:37:00.724Z,58.27
2023-05-10T02:38:05.214Z,58.56
2023-05-10T02:39:13.645Z,58.02
2023-05-10T02:40:19.211Z,58.05
2023-05-10T02:41:25.313Z,57.86
2023-05-10T02:42:30.178Z,58.21
2023-05-10T02:43:34.829Z,58.53
2023-05-10T02:44:39.720Z,58.09
2023-05-10T02:45:44.247Z,59.00
2023-05-10T02:46:46.890Z,58.38
2023-05-10T02:47:49.590Z,58.28
2023-05-10T02:48:51.507Z,58.07
2023-05-10T02:49:53.273Z,59.05
2023-05-10T02:51:01.524Z,58.24
2023-05-10T02:52:08.091Z,58.51
2023-05-10T02:53:21.871Z,58.65
2023-05-10T02:54:34.244Z,59.12
2023-05-10T02:55:46.133Z,58.42
2023-05-10T02:56:58.048Z,58.59
2023-05-10T02:58:03.316Z,59.10
2023-05-10T02:59:05.924Z,58.49
2023-05-10T03:00:09.952Z,59.00
2023-05-10T03:01:11.869Z,59.42
2023-05-10T03:02:14.845Z,59.34
2023-05-10T03:03:16.655Z,59.15
2023-05-10T03:04:18.698Z,59.71
2023-05-10T03:05:21.457Z,59.28
2023-05-10T03:06:23.324Z,58.63
2023-05-10T03:07:25.318Z,58.91
2023-05-10T03:08:30.175Z,59.57
2023-05-10T03:09:34.065Z,59.60
2023-05-10T03:10:53.067Z,58.95
2023-05-10T03:12:24.744Z,59.74
2023-05-10T03:13:47.469Z,59.10
2023-05-10T03:15:04.540Z,59.67
2023-05-10T03:16:21.024Z,59.46
2023-05-10T03:18:05.629Z,59.03
2023-05-10T03:19:28.948Z,59.98
2023-05-10T03:20:44.268Z,59.90
2023-05-10T03:21:53.487Z,59.56
2023-05-10T03:23:26.906Z,59.31
2023-05-10T03:24:29.680Z,59.85
2023-05-10T03:25:33.300Z,59.62
2023-05-10T03:26:37.163Z,59.42
2023-05-10T03:27:44.441Z,60.17
2023-05-10T03:28:49.457Z,59.64
2023-05-10T03:29:53.639Z,60.11
2023-05-10T03:30:57.591Z,59.20
2023-05-10T03:32:03.308Z,59.62
2023-05-10T03:33:08.364Z,59.78
2023-05-10T03:34:10.343Z,60.00
2023-05-10T03:35:15.203Z,59.63
2023-05-10T03:36:17.369Z,60.00
2023-05-10T03:37:19.188Z,60.05
2023-05-10T03:38:20.945Z,59.27
2023-05-10T03:39:22.757Z,59.77
2023-05-10T03:40:26.457Z,59.51
2023-05-10T03:41:28.238Z,60.06
2023-05-10T03:42:30.126Z,59.83
2023-05-10T03:43:31.904Z,59.78
2023-05-10T03:44:34.320Z,59.75
2023-05-10T03:45:36.559Z,59.32
2023-05-10T03:46:38.380Z,59.51
2023-05-10T03:47:40.280Z,59.98
2023-05-10T03:48:42.074Z,59.97
2023-05-10T03:49:44.051Z,60.41
2023-05-10T03:50:45.888Z,59.86
2023-05-10T03:51:47.749Z,59.95
2023-05-10T03:52:49.654Z,60.27
2023-05-10T03:53:51.639Z,59.66
2023-05-10T03:54:53.453Z,60.14
2023-05-10T03:55:55.177Z,59.91
2023-05-10T03:56:56.892Z,60.32
2023-05-10T03:57:58.696Z,59.67
2023-05-10T03:59:00.544Z,59.78
2023-05-10T04:00:03.743Z,59.88
2023-05-10T04:01:05.755Z,60.09
2023-05-10T04:02:07.747Z,60.00
2023-05-10T04:03:09.662Z,59.41
2023-05-10T04:04:11.654Z,59.75
2023-05-10T04:05:13.782Z,60.23
2023-05-10T04:06:15.653Z,59.85
2023-05-10T04:07:17.415Z,59.29
2023-05-10T04:08:19.210Z,59.52
2023-05-10T04:09:21.038Z,59.80
2023-05-10T04:10:22.864Z,60.00
2023-05-10T04:11:25.609Z,59.97
2023-05-10T04:12:27.357Z,59.69
2023-05-10T04:13:29.112Z,59.27
2023-05-10T04:14:30.935Z,60.04
2023-05-10T04:15:32.708Z,59.04
2023-05-10T04:16:34.761Z,59.10
2023-05-10T04:17:36.614Z,59.58
2023-05-10T04:18:38.473Z,59.08
2023-05-10T04:19:40.250Z,59.14
2023-05-10T04:20:42.010Z,59.71
2023-05-10T04:21:43.783Z,59.54
2023-05-10T04:22:45.546Z,59.58
2023-05-10T04:23:47.573Z,59.39
2023-05-10T04:24:49.356Z,59.10
2023-05-10T04:25:51.142Z,59.19
2023-05-10T04:26:52.973Z,59.09
2023-05-10T04:27:54.710Z,59.20
2023-05-10T04:28:56.484Z,59.06
2023-05-10T04:29:58.705Z,59.05
2023-05-10T04:31:10.182Z,58.80
2023-05-10T04:32:11.944Z,59.29
2023-05-10T04:33:13.681Z,58.81
2023-05-10T04:34:15.606Z,59.55
2023-05-10T04:35:17.600Z,58.50
2023-05-10T04:36:19.670Z,58.37
2023-05-10T04:37:22.351Z,58.84
2023-05-10T04:38:24.337Z,58.97
2023-05-10T04:39:26.130Z,58.66
2023-05-10T04:40:28.103Z,58.97
2023-05-10T04:41:30.348Z,58.97
2023-05-10T04:42:32.062Z,58.18
2023-05-10T04:43:34.167Z,58.43
2023-05-10T04:44:37.015Z,58.40
2023-05-10T04:45:38.777Z,58.31
2023-05-10T04:46:40.677Z,58.36
2023-05-10T04:47:42.579Z,58.14
2023-05-10T04:48:44.350Z,57.63
2023-05-10T04:49:46.247Z,58.36
2023-05-10T04:50:47.995Z,58.09
2023-05-10T04:51:49.833Z,57.89
2023-05-10T04:52:53.171Z,57.42
2023-05-10T04:54:05.211Z,58.01
2023-05-10T04:55:10.509Z,57.24
2023-05-10T04:56:12.252Z,57.38
2023-05-10T04:57:14.053Z,57.18
2023-05-10T04:58:16.207Z,57.71
2023-05-10T04:59:18.163Z,57.09
2023-05-10T05:00:20.647Z,57.48
2023-05-10T05:01:24.088Z,57.41
2023-05-10T05:02:26.017Z,56.84
2023-05-10T05:03:28.006Z,56.96
2023-05-10T05:04:31.914Z,56.64
2023-05-10T05:05:33.745Z,56.72
2023-05-10T05:06:35.570Z,56.69
2023-05-10T05:07:38.307Z,56.37
2023-05-10T05:08:40.231Z,56.63
2023-05-10T05:09:42.012Z,56.82
2023-05-10T05:10:43.749Z,56.48
2023-05-10T05:11:45.550Z,56.67
2023-05-10T05:12:47.417Z,56.56
2023-05-10T05:13:49.276Z,55.80
2023-05-10T05:14:51.036Z,56.50
2023-05-10T05:15:52.828Z,56.12
2023-05-10T05:16:54.784Z,56.63
2023-05-10T05:17:56.620Z,55.83
2023-05-10T05:18:58.453Z,55.50
2023-05-10T05:20:00.188Z,55.86
2023-05-10T05:21:02.010Z,55.40
2023-05-10T05:22:03.752Z,55.48
2023-05-10T05:23:05.482Z,55.78
2023-05-10T05:24:07.917Z,55.81
2023-05-10T05:25:10.031Z,55.16
2023-05-10T05:26:11.982Z,55.97
2023-05-10T05:27:13.717Z,55.11
2023-05-10T05:28:15.438Z,55.15
2023-05-10T05:29:17.182Z,54.42
2023-05-10T05:30:19.212Z,55.76
2023-05-10T05:31:21.854Z,55.05
2023-05-10T05:32:25.220Z,54.56
2023-05-10T05:33:27.035Z,54.55
2023-05-10T05:34:28.836Z,54.58
2023-05-10T05:35:30.600Z,54.65
2023-05-10T05:36:32.560Z,54.82
2023-05-10T05:37:34.395Z,54.72
2023-05-10T05:38:36.157Z,54.48
2023-05-10T05:39:38.224Z,54.41
2023-05-10T05:40:39.970Z,54.93
2023-05-10T05:41:41.719Z,54.04
2023-05-10T05:42:43.543Z,54.42
2023-05-10T05:43:45.313Z,53.81
2023-05-10T05:44:47.140Z,54.48
2023-05-10T05:45:49.099Z,53.67
2023-05-10T05:46:51.000Z,54.25
2023-05-10T05:47:53.066Z,53.41
2023-05-10T05:48:54.892Z,53.50
2023-05-10T05:49:56.704Z,53.70
2023-05-10T05:50:59.034Z,53.17
2023-05-10T05:52:05.395Z,53.30
2023-05-10T05:53:07.256Z,52.94
2023-05-10T05:54:09.165Z,53.13
2023-05-10T05:55:10.931Z,52.52
2023-05-10T05:56:12.686Z,52.11
2023-05-10T05:57:14.718Z,52.72
2023-05-10T05:58:16.489Z,52.17
2023-05-10T05:59:18.271Z,51.98
2023-05-10T06:00:20.103Z,52.49
2023-05-10T06:01:22.341Z,51.97
2023-05-10T06:02:24.216Z,51.46
2023-05-10T06:03:26.177Z,51.95
2023-05-10T06:04:28.071Z,51.41
2023-05-10T06:05:30.526Z,51.84
2023-05-10T06:06:33.224Z,51.06
2023-05-10T06:07:35.175Z,50.93
2023-05-10T06:08:36.940Z,50.68
2023-05-10T06:09:38.878Z,50.76
2023-05-10T06:10:41.062Z,50.56
2023-05-10T06:11:43.025Z,50.43
2023-05-10T06:12:44.813Z,50.03
2023-05-10T06:13:47.994Z,49.57
2023-05-10T06:14:49.745Z,50.00
2023-05-10T06:15:51.995Z,49.37
2023-05-10T06:16:53.826Z,49.90
2023-05-10T06:17:55.866Z,48.99
2023-05-10T06:18:57.759Z,48.99
2023-05-10T06:19:59.566Z,48.90
2023-05-10T06:21:01.444Z,48.77
2023-05-10T06:22:03.353Z,48.87
2023-05-10T06:23:05.453Z,48.63
2023-05-10T06:24:07.714Z,48.84
2023-05-10T06:25:10.743Z,49.13
2023-05-10T06:26:12.631Z,48.24
2023-05-10T06:27:14.392Z,48.11
2023-05-10T06:28:16.174Z,47.60
2023-05-10T06:29:18.420Z,47.59
2023-05-10T06:30:20.394Z,47.27
2023-05-10T06:31:22.265Z,47.62
2023-05-10T06:32:24.147Z,47.27
2023-05-10T06:33:25.930Z,47.09
2023-05-10T06:34:27.685Z,47.57
2023-05-10T06:35:30.191Z,46.96
2023-05-10T06:36:32.384Z,46.82
2023-05-10T06:37:35.015Z,46.53
2023-05-10T06:38:36.956Z,46.77
2023-05-10T06:39:38.775Z,46.65
2023-05-10T06:40:43.748Z,47.18
2023-05-10T06:41:45.546Z,46.72
2023-05-10T06:42:49.083Z,47.07
2023-05-10T06:43:50.909Z,47.08
2023-05-10T06:44:52.771Z,46.86
2023-05-10T06:45:54.534Z,46.70
2023-05-10T06:46:56.775Z,46.50
2023-05-10T06:47:58.564Z,46.78
2023-05-10T06:49:00.908Z,46.69
2023-05-10T06:50:02.907Z,46.98
2023-05-10T06:51:04.948Z,46.65
2023-05-10T06:52:06.809Z,46.92
2023-05-10T06:53:08.641Z,46.57
2023-05-10T06:54:10.456Z,46.09
2023-05-10T06:55:12.459Z,46.48
2023-05-10T06:56:14.933Z,45.89
2023-05-10T06:57:30.535Z,46.59
2023-05-10T06:58:33.769Z,45.99
2023-05-10T06:59:35.769Z,45.96
2023-05-10T07:00:41.339Z,46.30
2023-05-10T07:01:43.748Z,45.56
2023-05-10T07:02:46.675Z,45.32
2023-05-10T07:03:48.568Z,45.02
2023-05-10T07:04:51.368Z,45.71
2023-05-10T07:05:53.260Z,45.12
2023-05-10T07:06:55.123Z,44.97
2023-05-10T07:07:56.894Z,44.86
2023-05-10T07:08:58.736Z,44.14
2023-05-10T07:10:00.609Z,44.63
2023-05-10T07:11:08.577Z,43.77
2023-05-10T07:12:13.392Z,44.09
2023-05-10T07:13:16.758Z,43.35
2023-05-10T07:14:18.856Z,43.32
2023-05-10T07:15:21.190Z,42.47
2023-05-10T07:16:23.274Z,43.47
2023-05-10T07:17:25.429Z,43.00
2023-05-10T07:18:27.915Z,43.23
2023-05-10T07:19:30.469Z,42.61
2023-05-10T07:20:32.318Z,43.02
2023-05-10T07:21:34.341Z,42.07
2023-05-10T07:22:36.146Z,41.71
2023-05-10T07:23:37.920Z,41.77
2023-05-10T07:24:39.737Z,42.49
2023-05-10T07:25:41.630Z,41.87
2023-05-10T07:26:43.406Z,41.83
2023-05-10T07:27:45.289Z,41.78
2023-05-10T07:28:47.827Z,41.67
2023-05-10T07:29:49.575Z,42.06
2023-05-10T07:30:51.582Z,42.50
2023-05-10T07:31:55.409Z,42.01
2023-05-10T07:33:00.201Z,42.46
2023-05-10T07:34:01.931Z,42.52
2023-05-10T07:35:04.294Z,42.57
2023-05-10T07:36:06.358Z,43.07
2023-05-10T07:37:08.491Z,42.33
2023-05-10T07:38:11.991Z,42.37
2023-05-10T07:39:18.595Z,41.86
2023-05-10T07:40:29.161Z,41.97
2023-05-10T07:41:30.922Z,41.16
2023-05-10T07:42:32.708Z,40.66
2023-05-10T07:43:34.471Z,40.51
2023-05-10T07:44:36.275Z,40.73
2023-05-10T07:45:38.098Z,40.76
2023-05-10T07:46:39.883Z,41.08
2023-05-10T07:47:41.783Z,40.85
2023-05-10T07:48:43.696Z,40.83
2023-05-10T07:49:45.510Z,40.45
2023-05-10T07:50:47.237Z,40.26
2023-05-10T07:51:49.378Z,40.32
2023-05-10T07:52:51.201Z,39.62
2023-05-10T07:53:53.108Z,39.13
2023-05-10T07:54:55.367Z,39.16
2023-05-10T07:56:00.335Z,38.72
2023-05-10T07:57:02.268Z,39.15
2023-05-10T07:58:04.038Z,39.33
2023-05-10T07:59:07.772Z,39.73
2023-05-10T08:00:14.361Z,39.65
2023-05-10T08:01:16.160Z,39.05
2023-05-10T08:02:18.033Z,39.57
2023-05-10T08:03:20.019Z,38.65
2023-05-10T08:04:22.142Z,38.47
2023-05-10T08:05:23.895Z,38.27
2023-05-10T08:06:27.431Z,38.46
2023-05-10T08:07:29.208Z,38.11
2023-05-10T08:08:31.014Z,37.91
2023-05-10T08:09:32.964Z,37.43
2023-05-10T08:10:34.726Z,36.97
2023-05-10T08:11:36.515Z,36.19
2023-05-10T08:12:39.354Z,35.86
2023-05-10T08:13:41.145Z,36.11
2023-05-10T08:14:42.908Z,35.81
2023-05-10T08:15:44.725Z,36.13
2023-05-10T08:16:46.573Z,36.00
2023-05-10T08:17:48.417Z,35.22
2023-05-10T08:18:51.693Z,35.88
2023-05-10T08:19:53.521Z,35.59
2023-05-10T08:20:55.617Z,35.71
2023-05-10T08:21:58.094Z,34.53
2023-05-10T08:22:59.936Z,34.56
2023-05-10T08:24:01.696Z,34.32
2023-05-10T08:25:03.627Z,34.97
2023-05-10T08:26:05.517Z,34.26
2023-05-10T08:27:07.269Z,33.88
2023-05-10T08:28:11.283Z,34.25
2023-05-10T08:29:13.860Z,34.33
2023-05-10T08:30:15.890Z,34.27
2023-05-10T08:31:17.766Z,34.99
2023-05-10T08:32:19.609Z,34.63
2023-05-10T08:33:21.626Z,34.65
2023-05-10T08:34:23.579Z,34.84
2023-05-10T08:35:25.675Z,34.58
2023-05-10T08:36:28.622Z,34.59
2023-05-10T08:37:31.627Z,34.78
2023-05-10T08:38:33.573Z,34.65
2023-05-10T08:39:36.640Z,34.46
2023-05-10T08:40:39.130Z,34.04
2023-05-10T08:41:44.680Z,33.19
2023-05-10T08:43:03.538Z,32.89
2023-05-10T08:44:07.354Z,34.09
2023-05-10T08:45:11.567Z,34.54
2023-05-10T08:46:19.053Z,34.85
2023-05-10T08:47:21.526Z,35.39
2023-05-10T08:48:25.983Z,35.48
2023-05-10T08:49:32.609Z,34.78
2023-05-10T08:50:38.650Z,35.12
2023-05-10T08:51:50.720Z,34.82
2023-05-10T08:52:58.547Z,34.97
2023-05-10T08:54:01.443Z,35.93
2023-05-10T08:55:04.146Z,36.13
2023-05-10T08:56:07.142Z,35.62
2023-05-10T08:57:09.290Z,36.51
2023-05-10T08:58:11.519Z,36.10
2023-05-10T08:59:14.933Z,36.25
2023-05-10T09:00:19.137Z,35.89
2023-05-10T09:01:22.800Z,35.85
2023-05-10T09:02:24.992Z,35.40
2023-05-10T09:03:27.476Z,35.36
2023-05-10T09:04:30.413Z,34.49
2023-05-10T09:05:32.814Z,35.08
2023-05-10T09:06:35.826Z,34.23
2023-05-10T09:07:38.059Z,34.98
2023-05-10T09:08:42.577Z,35.10
2023-05-10T09:09:46.817Z,35.17
2023-05-10T09:10:49.854Z,35.39
2023-05-10T09:11:53.396Z,35.54
2023-05-10T09:12:59.367Z,36.16
2023-05-10T09:14:02.637Z,35.84
2023-05-10T09:15:07.983Z,35.66
2023-05-10T09:16:21.226Z,35.14
2023-05-10T09:17:26.845Z,35.57
2023-05-10T09:18:28.784Z,35.36
2023-05-10T09:19:30.739Z,35.92
2023-05-10T09:20:32.676Z,36.13
2023-05-10T09:21:39.929Z,35.95
2023-05-10T09:22:41.812Z,35.59
2023-05-10T09:23:48.516Z,34.61
2023-05-10T09:25:15.675Z,34.42
2023-05-10T09:26:18.334Z,34.23
2023-05-10T09:27:28.092Z,34.76
2023-05-10T09:28:50.718Z,34.42
2023-05-10T09:29:55.310Z,33.80
2023-05-10T09:30:57.243Z,33.87
2023-05-10T09:31:59.094Z,34.21
2023-05-10T09:33:01.761Z,34.52
2023-05-10T09:34:03.921Z,33.82
2023-05-10T09:35:18.494Z,34.16
2023-05-10T09:36:20.491Z,33.77
2023-05-10T09:37:31.159Z,34.47
2023-05-10T09:38:54.974Z,34.97
2023-05-10T09:39:56.811Z,34.99
2023-05-10T09:40:58.699Z,35.38
2023-05-10T09:42:10.129Z,35.28
2023-05-10T09:43:11.997Z,35.26
2023-05-10T09:44:19.643Z,35.19
2023-05-10T09:45:23.491Z,34.94
2023-05-10T09:46:25.407Z,34.18
2023-05-10T09:47:27.945Z,33.92
2023-05-10T09:48:30.037Z,34.15
2023-05-10T09:49:32.184Z,33.72
2023-05-10T09:50:35.094Z,33.92
2023-05-10T09:51:37.107Z,34.02
2023-05-10T09:53:01.500Z,34.91
2023-05-10T09:54:17.166Z,35.27
2023-05-10T09:55:25.608Z,35.34
2023-05-10T09:56:41.489Z,33.71
2023-05-10T09:57:43.363Z,33.61
2023-05-10T09:58:45.209Z,33.17
2023-05-10T09:59:47.960Z,33.33
2023-05-10T10:00:52.448Z,33.34
2023-05-10T10:02:03.691Z,33.24
2023-05-10T10:03:06.399Z,33.26
2023-05-10T10:04:10.824Z,33.44
2023-05-10T10:05:12.998Z,34.02
2023-05-10T10:06:29.658Z,33.92
2023-05-10T10:07:33.765Z,34.66
2023-05-10T10:08:36.216Z,34.77
2023-05-10T10:09:38.260Z,35.12
2023-05-10T10:10:41.789Z,34.76
2023-05-10T10:11:43.656Z,35.15
2023-05-10T10:12:45.793Z,34.27
2023-05-10T10:13:47.702Z,34.46
2023-05-10T10:14:51.251Z,34.50
2023-05-10T10:15:55.806Z,34.23
2023-05-10T10:17:06.706Z,34.40
2023-05-10T10:18:16.193Z,34.66
2023-05-10T10:19:21.849Z,34.64
2023-05-10T10:20:24.980Z,34.75
2023-05-10T10:21:27.417Z,34.43
2023-05-10T10:22:29.178Z,34.67
2023-05-10T10:23:31.092Z,34.00
2023-05-10T10:24:33.052Z,33.86
2023-05-10T10:25:35.136Z,33.42
2023-05-10T10:26:43.557Z,33.90
2023-05-10T10:28:28.431Z,34.61
2023-05-10T10:30:02.322Z,34.63
2023-05-10T10:31:53.346Z,33.38
2023-05-10T10:33:07.948Z,33.50
2023-05-10T10:34:30.451Z,33.38
2023-05-10T10:35:33.321Z,33.38
2023-05-10T10:36:48.564Z,33.30
2023-05-10T10:37:52.377Z,33.76
2023-05-10T10:39:09.571Z,34.12
2023-05-10T10:40:34.594Z,34.16
2023-05-10T10:41:45.270Z,33.00
2023-05-10T10:42:50.752Z,33.09
2023-05-10T10:44:37.307Z,32.65
2023-05-10T10:45:42.148Z,32.37
2023-05-10T10:47:14.892Z,32.10
2023-05-10T10:48:24.478Z,32.17
2023-05-10T10:49:26.675Z,32.12
2023-05-10T10:50:28.501Z,32.32
2023-05-10T10:51:32.157Z,32.81
2023-05-10T10:52:47.226Z,33.00
2023-05-10T10:53:50.002Z,33.52
2023-05-10T10:55:07.948Z,33.67
2023-05-10T10:56:16.166Z,33.30
2023-05-10T10:57:22.758Z,33.17
2023-05-10T10:58:37.108Z,33.13
2023-05-10T10:59:44.886Z,32.86
2023-05-10T11:00:46.656Z,32.90
2023-05-10T11:01:53.218Z,32.90
2023-05-10T11:03:08.920Z,32.40
2023-05-10T11:04:10.623Z,32.80
2023-05-10T11:05:49.099Z,33.32
2023-05-10T11:06:50.974Z,33.32
2023-05-10T11:07:59.554Z,33.72
2023-05-10T11:09:10.103Z,34.19
2023-05-10T11:10:12.450Z,34.53
2023-05-10T11:11:16.218Z,34.40
2023-05-10T11:12:18.016Z,34.91
2023-05-10T11:13:42.334Z,35.02
2023-05-10T11:14:44.289Z,35.01
2023-05-10T11:15:52.237Z,35.05
2023-05-10T11:16:54.246Z,35.13
2023-05-10T11:17:56.904Z,35.14
2023-05-10T11:19:10.494Z,35.44
2023-05-10T11:20:16.320Z,35.25
2023-05-10T11:21:18.390Z,35.06
2023-05-10T11:22:20.128Z,34.92
2023-05-10T11:23:22.495Z,35.38
2023-05-10T11:24:29.060Z,34.90
2023-05-10T11:25:30.861Z,34.47
2023-05-10T11:26:36.511Z,34.16
2023-05-10T11:27:39.257Z,34.55
2023-05-10T11:28:50.684Z,34.56
2023-05-10T11:29:53.314Z,34.83
2023-05-10T11:30:56.689Z,34.66
2023-05-10T11:32:00.768Z,34.74
2023-05-10T11:33:02.728Z,34.66
2023-05-10T11:34:04.560Z,34.36
2023-05-10T11:35:13.356Z,34.33
2023-05-10T11:36:29.814Z,35.05
2023-05-10T11:37:35.055Z,34.75
2023-05-10T11:38:36.844Z,34.95
2023-05-10T11:39:41.274Z,34.96
2023-05-10T11:40:44.105Z,34.73
2023-05-10T11:41:50.415Z,33.70
2023-05-10T11:42:52.316Z,33.77
2023-05-10T11:43:56.502Z,34.14
2023-05-10T11:44:58.308Z,33.62
2023-05-10T11:46:00.438Z,33.72
2023-05-10T11:47:03.266Z,34.12
2023-05-10T11:48:05.764Z,34.20
2023-05-10T11:49:08.934Z,34.53
2023-05-10T11:50:12.579Z,33.98
2023-05-10T11:51:14.328Z,33.76
2023-05-10T11:52:16.109Z,33.25
2023-05-10T11:53:17.854Z,32.92
2023-05-10T11:54:19.594Z,32.86
2023-05-10T11:55:21.647Z,32.84
2023-05-10T11:56:24.393Z,32.68
2023-05-10T11:57:29.441Z,32.81
2023-05-10T11:58:33.345Z,32.91
2023-05-10T11:59:35.115Z,32.54
2023-05-10T12:00:36.980Z,32.87
2023-05-10T12:01:38.932Z,32.72
2023-05-10T12:02:41.358Z,32.10
2023-05-10T12:03:43.427Z,32.75
2023-05-10T12:04:45.776Z,32.38
2023-05-10T12:05:47.762Z,32.57
2023-05-10T12:06:49.703Z,32.78
2023-05-10T12:07:51.408Z,32.64
2023-05-10T12:08:54.510Z,33.24
2023-05-10T12:10:20.197Z,33.89
2023-05-10T12:11:28.273Z,32.75
2023-05-10T12:12:45.682Z,33.42
2023-05-10T12:13:47.758Z,33.59
2023-05-10T12:14:52.098Z,33.36
2023-05-10T12:15:54.015Z,33.58
2023-05-10T12:16:58.485Z,34.16
2023-05-10T12:18:00.954Z,34.45
2023-05-10T12:19:03.190Z,33.77
2023-05-10T12:20:28.432Z,33.17
2023-05-10T12:21:33.517Z,32.04
2023-05-10T12:22:35.859Z,31.52
2023-05-10T12:23:37.766Z,32.22
2023-05-10T12:24:39.725Z,32.25
2023-05-10T12:25:41.569Z,32.44
2023-05-10T12:26:43.563Z,32.78
2023-05-10T12:27:59.117Z,33.05
2023-05-10T12:29:21.163Z,33.24
2023-05-10T12:30:27.879Z,32.66
2023-05-10T12:31:29.730Z,32.83
2023-05-10T12:32:46.411Z,33.20
2023-05-10T12:33:50.188Z,33.00
2023-05-10T12:34:54.241Z,33.26
2023-05-10T12:35:57.274Z,33.39
2023-05-10T12:37:01.630Z,33.71
2023-05-10T12:38:48.502Z,33.03
2023-05-10T12:39:50.355Z,33.94
2023-05-10T12:40:52.144Z,33.23
2023-05-10T12:41:53.978Z,32.71
2023-05-10T12:42:55.915Z,32.79
2023-05-10T12:43:57.767Z,32.38
2023-05-10T12:44:59.479Z,32.21
2023-05-10T12:46:18.004Z,32.25
2023-05-10T12:47:19.813Z,32.75
2023-05-10T12:48:21.719Z,33.22
2023-05-10T12:49:23.497Z,32.73
2023-05-10T12:50:25.629Z,33.42
2023-05-10T12:51:27.405Z,33.66
2023-05-10T12:52:30.563Z,33.31
2023-05-10T12:53:32.775Z,33.26
2023-05-10T12:54:34.512Z,32.96
2023-05-10T12:55:36.313Z,32.64
2023-05-10T12:56:38.165Z,32.57
2023-05-10T12:57:39.912Z,32.53
2023-05-10T12:58:41.846Z,32.73
2023-05-10T12:59:43.590Z,32.67
2023-05-10T13:00:45.872Z,32.25
2023-05-10T13:01:47.760Z,32.79
2023-05-10T13:02:49.911Z,31.79
2023-05-10T13:03:51.732Z,32.04
2023-05-10T13:04:54.226Z,32.63
2023-05-10T13:05:56.053Z,32.34
2023-05-10T13:06:59.716Z,32.55
2023-05-10T13:08:01.739Z,31.91
2023-05-10T13:09:03.580Z,32.10
2023-05-10T13:10:07.592Z,31.81
2023-05-10T13:11:09.395Z,31.78
2023-05-10T13:12:11.188Z,31.54
2023-05-10T13:13:13.059Z,31.76
2023-05-10T13:14:15.329Z,31.72
2023-05-10T13:15:17.093Z,32.49
2023-05-10T13:16:18.931Z,32.51
2023-05-10T13:17:20.938Z,32.69
2023-05-10T13:18:22.742Z,32.16
2023-05-10T13:19:24.625Z,32.19
2023-05-10T13:20:26.565Z,31.96
2023-05-10T13:21:28.856Z,31.26
2023-05-10T13:22:39.864Z,31.66
2023-05-10T13:23:42.405Z,31.76
2023-05-10T13:24:44.331Z,31.04
2023-05-10T13:25:46.236Z,31.24
2023-05-10T13:26:47.993Z,31.94
2023-05-10T13:27:49.738Z,31.06
2023-05-10T13:28:52.514Z,31.96
2023-05-10T13:29:54.757Z,31.83
2023-05-10T13:30:56.564Z,32.19
2023-05-10T13:31:58.470Z,32.01
2023-05-10T13:33:00.382Z,32.40
2023-05-10T13:34:03.319Z,32.11
2023-05-10T13:35:06.581Z,32.21
2023-05-10T13:36:08.650Z,31.95
2023-05-10T13:37:10.457Z,32.65
2023-05-10T13:38:14.683Z,32.62
2023-05-10T13:39:17.042Z,32.12
2023-05-10T13:40:19.059Z,32.22
2023-05-10T13:41:20.901Z,31.57
2023-05-10T13:42:24.586Z,31.67
2023-05-10T13:43:26.350Z,31.84
2023-05-10T13:44:28.111Z,31.66
2023-05-10T13:45:29.859Z,31.40
2023-05-10T13:46:31.896Z,32.02
2023-05-10T13:47:33.792Z,31.78
2023-05-10T13:48:39.013Z,31.31
2023-05-10T13:49:41.079Z,31.15
2023-05-10T13:50:42.802Z,31.02
2023-05-10T13:51:44.965Z,31.03
2023-05-10T13:52:46.671Z,30.87
2023-05-10T13:53:48.464Z,30.77
2023-05-10T13:54:50.225Z,31.02
2023-05-10T13:55:52.062Z,31.39
2023-05-10T13:56:54.137Z,31.41
2023-05-10T13:57:56.059Z,31.42
2023-05-10T13:58:59.298Z,31.63
2023-05-10T14:00:01.344Z,31.71